Orange Park, FL

1:03 AM EST on December 27, 2014 (GMT -0500)
Miniature Acres | Change Station
CLOSE
Current Station
Personal Weather Station
Location: Orange Park, FL
Elevation: 79 ft
Nearby Weather Stations

Elev 79 ft 30.13 °N, 81.77 °W | Updated 0 second ago

Mostly Cloudy
Mostly Cloudy
55.0 °F
Feels Like 55.0 °F
N
0.0
Wind Variable Wind from North
Gusts 0.0 mph

Today
High -- | Low -- °F
--% Chance of Precip.
Yesterday
High -- | Low -- °F
Precip. -- in
7:21 AM 5:34 PM
Waxing Crescent, 33% visible
Pressure 30.26 in
Visibility 8.0 miles
Clouds Scattered Clouds 3400 ft
Mostly Cloudy 4400 ft
Dew Point 54 °F
Humidity 97%
Rainfall 0.00 in
Snow Depth Not available.
UV 0 out of 12
Pollen 2.70 out of 12
Air Quality Not available.
Flu Activity Not available.
METAR KVQQ 270535Z AUTO 00000KT 8SM SCT034 BKN044 12/12 A3026 RMK AO2

More Conditions Fewer Conditions

Pressure 30.26 in
Visibility 8.0 miles
Clouds Scattered Clouds 3400 ft
Mostly Cloudy 4400 ft
Dew Point 54 °F
Humidity 97%
Rainfall 0.00 in
Snow Depth Not available.
UV 0 out of 12
Pollen 2.70 out of 12
Air Quality Not available.
Flu Activity Not available.
METAR KVQQ 270535Z AUTO 00000KT 8SM SCT034 BKN044 12/12 A3026 RMK AO2

More Conditions Fewer Conditions

10-Day Weather Forecast

Almanac

Astronomy

Dec. 27, 2014 Rise Set
Actual Time
Civil Twilight
Nautical Twilight
Astronomical Twilight
Moon
Length of Visible Light
Length of Day
Tomorrow will be .
, % of the Moon is Illuminated

Today's Extremes

State Highs State Lows

Community

WunderPhotos

Upload Photos

1,780,853 photos uploaded!

WunderBlogs® & News

Nearby

Air Quality

  Air Quality AQ Index Pollutant
Not available.

Snow Depth

Station Depth Elevation

Earthquake Activity

City Distance Mag. Time & Date
Minimum magnitude displayed is 2.5.

Coastal Water Temperatures

Place Temperature

Nearby Weather Stations